Time;durP1;ratioP1;P1;durP2;ratioP2;P2;SDS_P1;SDS_P2;PMS_P1;PMS_P2;Temp;Humidity;BMP_temperature;BMP_pressure;BME280_temperature;BME280_humidity;BME280_pressure;Samples;Min_cycle;Max_cycle;Signal;HPM_P1;HPM_P2
2022/05/25 00:00:34;;;;;;;10.68;6.82;;;;;;;;;;2115252;28;20163;-48
2022/05/25 00:01:35;;;;;;;9.60;6.37;;;;;;;;;;2115237;28;20176;-46
2022/05/25 00:02:37;;;;;;;12.88;7.07;;;;;;;;;;2115353;28;20283;-47
2022/05/25 00:03:38;;;;;;;12.25;7.10;;;;;;;;;;2115287;28;20051;-47
2022/05/25 00:04:40;;;;;;;11.52;6.78;;;;;;;;;;2115229;28;20047;-46
2022/05/25 00:05:41;;;;;;;11.82;6.30;;;;;;;;;;2115452;28;20051;-47
2022/05/25 00:06:42;;;;;;;10.55;6.55;;;;;;;;;;2115229;28;20530;-47
2022/05/25 00:07:43;;;;;;;9.23;6.38;;;;;;;;;;2115436;28;20048;-47
2022/05/25 00:08:44;;;;;;;8.97;6.00;;;;;;;;;;2115210;28;20044;-47
2022/05/25 00:09:46;;;;;;;11.27;6.47;;;;;;;;;;2115302;28;20044;-47
2022/05/25 00:10:47;;;;;;;10.82;6.45;;;;;;;;;;2115295;28;20050;-47
2022/05/25 00:11:49;;;;;;;13.95;6.40;;;;;;;;;;2115212;28;20074;-47
2022/05/25 00:12:50;;;;;;;12.32;6.80;;;;;;;;;;2115241;28;20074;-46
2022/05/25 00:13:51;;;;;;;12.30;6.28;;;;;;;;;;2115176;28;20488;-46
2022/05/25 00:14:52;;;;;;;10.10;5.73;;;;;;;;;;2115330;28;20077;-48
2022/05/25 00:15:53;;;;;;;13.00;6.30;;;;;;;;;;2115270;28;20492;-46
2022/05/25 00:16:55;;;;;;;12.68;7.50;;;;;;;;;;2115307;28;20043;-47
2022/05/25 00:17:56;;;;;;;13.27;6.45;;;;;;;;;;2115368;28;20044;-46
2022/05/25 00:20:18;;;;;;;11.88;6.60;;;;;;;;;;2106709;28;20122;-48
2022/05/25 00:21:18;;;;;;;;;;;;;;;;;;2107380;28;20054;-46
2022/05/25 00:22:20;;;;;;;11.73;5.80;;;;;;;;;;2106717;28;19920;-46
2022/05/25 00:23:20;;;;;;;11.50;6.95;;;;;;;;;;2106823;28;20044;-47
2022/05/25 00:24:22;;;;;;;10.07;5.43;;;;;;;;;;2106628;28;20048;-46
2022/05/25 00:25:24;;;;;;;12.27;6.85;;;;;;;;;;2106853;28;20130;-46
2022/05/25 00:26:25;;;;;;;12.32;6.68;;;;;;;;;;2106754;28;20560;-46
2022/05/25 00:27:27;;;;;;;13.00;6.40;;;;;;;;;;2106702;28;20047;-47
2022/05/25 00:28:28;;;;;;;11.95;6.00;;;;;;;;;;2106933;28;20125;-46
2022/05/25 00:29:29;;;;;;;10.60;6.40;;;;;;;;;;2106449;28;20492;-46
2022/05/25 00:30:30;;;;;;;11.32;5.15;;;;;;;;;;2106818;28;20127;-47
2022/05/25 00:31:32;;;;;;;13.90;6.30;;;;;;;;;;2106653;28;20378;-47
2022/05/25 00:32:33;;;;;;;11.15;6.20;;;;;;;;;;2106649;28;20515;-48
2022/05/25 00:33:34;;;;;;;10.43;6.28;;;;;;;;;;2106611;28;20516;-46
2022/05/25 00:34:35;;;;;;;12.30;6.20;;;;;;;;;;2106791;28;20059;-46
2022/05/25 00:35:37;;;;;;;13.75;6.03;;;;;;;;;;2106745;28;20044;-47
2022/05/25 00:36:38;;;;;;;12.80;6.57;;;;;;;;;;2106762;28;20044;-46
2022/05/25 00:37:39;;;;;;;10.23;6.25;;;;;;;;;;2106631;28;20052;-47
2022/05/25 00:38:40;;;;;;;14.05;6.85;;;;;;;;;;2106734;28;20123;-47
2022/05/25 00:39:41;;;;;;;11.93;5.80;;;;;;;;;;2106770;28;20127;-46
2022/05/25 00:40:44;;;;;;;11.30;6.22;;;;;;;;;;2106565;28;20504;-46
2022/05/25 00:41:45;;;;;;;10.18;5.78;;;;;;;;;;2106596;28;20795;-46
2022/05/25 00:42:46;;;;;;;13.17;6.37;;;;;;;;;;2106653;28;20101;-46
2022/05/25 00:43:47;;;;;;;;;;;;;;;;;;2107003;28;20441;-46
2022/05/25 00:44:48;;;;;;;12.38;5.72;;;;;;;;;;2106491;28;19923;-46
2022/05/25 00:45:50;;;;;;;11.13;6.47;;;;;;;;;;2106683;28;20386;-48
2022/05/25 00:46:52;;;;;;;10.70;6.00;;;;;;;;;;2106498;28;20432;-46
2022/05/25 00:47:53;;;;;;;10.57;6.95;;;;;;;;;;2106654;28;20052;-46
2022/05/25 00:48:55;;;;;;;10.18;5.28;;;;;;;;;;2106642;28;20047;-46
2022/05/25 00:49:56;;;;;;;14.70;7.50;;;;;;;;;;2106589;28;20050;-48
2022/05/25 00:51:12;;;;;;;13.00;6.10;;;;;;;;;;2106298;28;20084;-47
2022/05/25 00:52:14;;;;;;;13.35;6.55;;;;;;;;;;2106715;28;20123;-47
2022/05/25 00:53:15;;;;;;;10.38;6.50;;;;;;;;;;2106694;28;20174;-46
2022/05/25 00:54:18;;;;;;;11.38;6.63;;;;;;;;;;2106404;28;20552;-46
2022/05/25 00:55:26;;;;;;;9.30;5.40;;;;;;;;;;2106565;28;20557;-46
2022/05/25 00:56:29;;;;;;;10.70;6.55;;;;;;;;;;2107972;28;20051;-46
2022/05/25 00:57:33;;;;;;;12.23;6.85;;;;;;;;;;2115024;28;20131;-46
2022/05/25 00:58:37;;;;;;;10.10;6.57;;;;;;;;;;2114849;28;20107;-46
2022/05/25 00:59:42;;;;;;;10.07;6.53;;;;;;;;;;2115032;28;20118;-48
2022/05/25 01:00:44;;;;;;;10.73;6.32;;;;;;;;;;2114878;28;20060;-47
2022/05/25 01:01:45;;;;;;;12.77;6.45;;;;;;;;;;2115062;28;20047;-46
2022/05/25 01:02:47;;;;;;;10.27;5.57;;;;;;;;;;2115015;28;20051;-47
2022/05/25 01:03:48;;;;;;;12.05;6.78;;;;;;;;;;2114823;28;20462;-48
2022/05/25 01:04:49;;;;;;;10.07;6.23;;;;;;;;;;2114913;28;20073;-47
2022/05/25 01:05:54;;;;;;;9.30;5.93;;;;;;;;;;2115034;28;20116;-47
2022/05/25 01:07:13;;;;;;;12.35;6.68;;;;;;;;;;2114937;28;20123;-46
2022/05/25 01:08:21;;;;;;;13.25;7.05;;;;;;;;;;2114773;28;20621;-48
2022/05/25 01:09:30;;;;;;;11.32;6.72;;;;;;;;;;2114909;28;20126;-47
2022/05/25 01:10:37;;;;;;;13.63;7.13;;;;;;;;;;2115007;28;20126;-46
2022/05/25 01:11:45;;;;;;;12.63;6.55;;;;;;;;;;2114993;28;20044;-46
2022/05/25 01:12:54;;;;;;;12.52;7.25;;;;;;;;;;2115003;28;20135;-46
2022/05/25 01:14:02;;;;;;;12.35;6.65;;;;;;;;;;2114762;28;20485;-48
2022/05/25 01:15:09;;;;;;;10.70;6.55;;;;;;;;;;2114846;28;20122;-47
2022/05/25 01:16:15;;;;;;;11.60;6.55;;;;;;;;;;2114876;28;20039;-46
2022/05/25 01:17:22;;;;;;;11.50;6.10;;;;;;;;;;2115029;28;20040;-47
2022/05/25 01:18:28;;;;;;;12.40;6.38;;;;;;;;;;2114677;28;20046;-47
2022/05/25 01:19:46;;;;;;;11.18;6.88;;;;;;;;;;2114849;28;20587;-46
2022/05/25 01:20:49;;;;;;;14.05;7.05;;;;;;;;;;2114865;28;20054;-46
2022/05/25 01:21:55;;;;;;;13.70;6.60;;;;;;;;;;2114756;28;20484;-46
2022/05/25 01:23:14;;;;;;;10.45;5.53;;;;;;;;;;2114943;28;20052;-47
2022/05/25 01:24:23;;;;;;;11.73;6.47;;;;;;;;;;2114682;28;20622;-47
2022/05/25 01:25:34;;;;;;;14.63;6.95;;;;;;;;;;2114809;28;20122;-46
2022/05/25 01:26:41;;;;;;;9.95;6.05;;;;;;;;;;2114812;28;20054;-46
2022/05/25 01:27:43;;;;;;;12.85;7.95;;;;;;;;;;2114759;28;20072;-47
2022/05/25 01:28:54;;;;;;;11.48;7.28;;;;;;;;;;2114639;28;20489;-46
2022/05/25 01:30:00;;;;;;;12.65;6.47;;;;;;;;;;2114694;28;20489;-47
2022/05/25 01:31:05;;;;;;;11.23;6.82;;;;;;;;;;2114888;28;20047;-46
2022/05/25 01:32:09;;;;;;;11.00;6.90;;;;;;;;;;2106577;28;20044;-46
2022/05/25 01:33:14;;;;;;;12.15;6.35;;;;;;;;;;2106259;28;20169;-46
2022/05/25 01:34:19;;;;;;;12.25;7.15;;;;;;;;;;2106170;28;20126;-47
2022/05/25 01:35:33;;;;;;;12.80;7.25;;;;;;;;;;2106408;28;20154;-46
2022/05/25 01:36:39;;;;;;;10.75;6.60;;;;;;;;;;2106508;28;20138;-47
2022/05/25 01:37:46;;;;;;;12.63;6.90;;;;;;;;;;2106357;28;20542;-48
2022/05/25 01:38:50;;;;;;;15.02;7.43;;;;;;;;;;2106260;28;20131;-46
2022/05/25 01:39:53;;;;;;;12.93;6.93;;;;;;;;;;2106255;28;20138;-47
2022/05/25 01:40:56;;;;;;;9.63;6.60;;;;;;;;;;2106464;28;20139;-58
2022/05/25 01:42:01;;;;;;;12.30;7.05;;;;;;;;;;2106360;28;20100;-59
2022/05/25 01:43:04;;;;;;;10.95;6.50;;;;;;;;;;2106244;28;20131;-58
2022/05/25 01:44:07;;;;;;;13.00;7.45;;;;;;;;;;2106288;28;20048;-59
2022/05/25 01:45:09;;;;;;;14.73;7.32;;;;;;;;;;2106273;28;20127;-58
2022/05/25 01:46:12;;;;;;;10.48;6.47;;;;;;;;;;2106310;28;20131;-58
2022/05/25 01:47:14;;;;;;;12.32;7.00;;;;;;;;;;2106385;28;20106;-58
2022/05/25 01:48:16;;;;;;;12.07;6.90;;;;;;;;;;2106153;28;20072;-58
2022/05/25 01:49:19;;;;;;;11.73;6.60;;;;;;;;;;2106107;28;20565;-58
2022/05/25 01:50:22;;;;;;;12.77;6.80;;;;;;;;;;2106032;28;20483;-58
2022/05/25 01:51:25;;;;;;;11.20;7.13;;;;;;;;;;2106343;28;20144;-59
2022/05/25 01:52:30;;;;;;;11.65;5.57;;;;;;;;;;2106151;28;20481;-58
2022/05/25 01:53:33;;;;;;;10.73;6.68;;;;;;;;;;2114679;28;20150;-58
2022/05/25 01:54:35;;;;;;;11.35;6.00;;;;;;;;;;2114510;28;20052;-58
2022/05/25 01:55:39;;;;;;;12.88;6.68;;;;;;;;;;2114607;28;20047;-59
2022/05/25 01:56:44;;;;;;;10.50;6.60;;;;;;;;;;2114557;28;20135;-58
2022/05/25 01:57:48;;;;;;;10.40;7.13;;;;;;;;;;2114664;28;20134;-58
2022/05/25 01:58:52;;;;;;;12.80;6.90;;;;;;;;;;2114415;28;20520;-58
2022/05/25 01:59:53;;;;;;;11.20;6.22;;;;;;;;;;2114662;28;20054;-58
2022/05/25 02:00:56;;;;;;;12.53;7.53;;;;;;;;;;2114532;28;20071;-58
2022/05/25 02:04:34;;;;;;;16.02;6.18;;;;;;;;;;2114459;28;20432;-58
2022/05/25 02:05:36;;;;;;;9.25;5.30;;;;;;;;;;2114445;28;20096;-58
2022/05/25 02:06:54;;;;;;;11.30;6.25;;;;;;;;;;2114645;28;20050;-58
2022/05/25 02:07:59;;;;;;;10.25;6.53;;;;;;;;;;2114537;28;20047;-58
2022/05/25 02:09:18;;;;;;;11.75;6.78;;;;;;;;;;2114488;28;20155;-58
2022/05/25 02:10:25;;;;;;;9.77;6.05;;;;;;;;;;2114266;28;20451;-58
2022/05/25 02:11:31;;;;;;;10.57;5.88;;;;;;;;;;2114733;28;20042;-58
2022/05/25 02:12:38;;;;;;;14.30;7.45;;;;;;;;;;2114422;28;20134;-59
2022/05/25 02:13:56;;;;;;;14.38;6.53;;;;;;;;;;2114505;28;20130;-58
2022/05/25 02:15:00;;;;;;;11.50;6.80;;;;;;;;;;2114434;28;20452;-58
2022/05/25 02:16:08;;;;;;;13.13;7.55;;;;;;;;;;2114505;28;20099;-59
2022/05/25 02:17:12;;;;;;;12.57;6.75;;;;;;;;;;2114364;28;20055;-58
2022/05/25 02:18:17;;;;;;;15.20;6.80;;;;;;;;;;2114418;28;20044;-58
2022/05/25 02:19:21;;;;;;;10.57;6.40;;;;;;;;;;2114189;28;20112;-58
2022/05/25 02:20:28;;;;;;;12.30;6.60;;;;;;;;;;2114511;28;20126;-58
2022/05/25 02:21:31;;;;;;;12.25;6.30;;;;;;;;;;2114360;28;20457;-58
2022/05/25 02:22:37;;;;;;;10.50;5.95;;;;;;;;;;2114499;28;20120;-58
2022/05/25 02:23:42;;;;;;;11.68;6.95;;;;;;;;;;2114259;28;20138;-58
2022/05/25 02:24:46;;;;;;;10.23;6.38;;;;;;;;;;2114505;28;20058;-58
2022/05/25 02:25:49;;;;;;;16.17;7.10;;;;;;;;;;2114462;28;20283;-58
2022/05/25 02:26:52;;;;;;;11.00;6.45;;;;;;;;;;2114442;28;20127;-58
2022/05/25 02:27:57;;;;;;;13.60;7.00;;;;;;;;;;2114310;28;20122;-58
2022/05/25 02:29:00;;;;;;;11.02;5.88;;;;;;;;;;2114351;28;20131;-58
2022/05/25 02:30:04;;;;;;;9.57;5.95;;;;;;;;;;2114261;28;20480;-58
2022/05/25 02:31:08;;;;;;;8.02;5.43;;;;;;;;;;2114319;28;20070;-58
2022/05/25 02:32:12;;;;;;;9.23;5.68;;;;;;;;;;2114357;28;20065;-58
2022/05/25 02:33:15;;;;;;;9.60;5.82;;;;;;;;;;2114333;28;20168;-59
2022/05/25 02:34:17;;;;;;;9.85;6.10;;;;;;;;;;2114465;28;20514;-58
2022/05/25 02:35:19;;;;;;;11.75;6.50;;;;;;;;;;2114305;28;20368;-58
2022/05/25 02:36:21;;;;;;;9.70;5.78;;;;;;;;;;2114396;28;20069;-58
2022/05/25 02:37:23;;;;;;;12.93;6.43;;;;;;;;;;2114283;28;20476;-58
2022/05/25 02:38:25;;;;;;;11.00;5.75;;;;;;;;;;2114398;28;20074;-58
2022/05/25 02:39:26;;;;;;;10.65;6.35;;;;;;;;;;2114275;28;20054;-58
2022/05/25 02:40:28;;;;;;;11.98;5.95;;;;;;;;;;2114398;28;20040;-58
2022/05/25 02:41:31;;;;;;;11.95;6.53;;;;;;;;;;2114211;28;20138;-58
2022/05/25 02:42:32;;;;;;;10.30;6.57;;;;;;;;;;2114369;28;20094;-58
2022/05/25 02:43:34;;;;;;;9.18;5.57;;;;;;;;;;2114279;28;20540;-58
2022/05/25 02:44:36;;;;;;;9.73;6.22;;;;;;;;;;2114413;28;20044;-58
2022/05/25 02:45:37;;;;;;;14.10;6.22;;;;;;;;;;2114334;28;20126;-58
2022/05/25 02:46:40;;;;;;;9.13;6.18;;;;;;;;;;2114233;28;20126;-58
2022/05/25 02:47:41;;;;;;;11.05;6.53;;;;;;;;;;2114306;28;20043;-58
2022/05/25 02:48:42;;;;;;;12.13;6.20;;;;;;;;;;2114147;28;20047;-58
2022/05/25 02:49:43;;;;;;;8.80;5.55;;;;;;;;;;2114102;28;20071;-58
2022/05/25 02:50:45;;;;;;;7.03;5.22;;;;;;;;;;2114172;28;20043;-58
2022/05/25 02:51:46;;;;;;;10.75;6.38;;;;;;;;;;2114394;28;20058;-48
2022/05/25 02:52:48;;;;;;;9.23;5.53;;;;;;;;;;2114151;28;20048;-47
2022/05/25 02:53:48;;;;;;;11.40;6.30;;;;;;;;;;2114230;28;20284;-48
2022/05/25 02:54:50;;;;;;;9.25;6.10;;;;;;;;;;2114287;28;20107;-47
2022/05/25 02:55:51;;;;;;;12.05;6.47;;;;;;;;;;2114157;28;20483;-46
2022/05/25 02:56:52;;;;;;;9.83;5.70;;;;;;;;;;2114335;28;20075;-46
2022/05/25 02:57:54;;;;;;;9.30;6.18;;;;;;;;;;2114112;28;20618;-46
2022/05/25 02:58:55;;;;;;;9.27;6.13;;;;;;;;;;2114182;28;20056;-48
2022/05/25 02:59:56;;;;;;;8.30;5.53;;;;;;;;;;2114166;28;20164;-49
2022/05/25 03:00:58;;;;;;;8.02;4.82;;;;;;;;;;2114172;28;20151;-47
2022/05/25 03:02:01;;;;;;;9.48;6.03;;;;;;;;;;2114252;28;20048;-47
2022/05/25 03:03:02;;;;;;;8.95;5.70;;;;;;;;;;2114087;28;20126;-46
2022/05/25 03:04:04;;;;;;;11.32;6.07;;;;;;;;;;2114008;28;20508;-46
2022/05/25 03:05:06;;;;;;;10.52;5.38;;;;;;;;;;2114248;28;20044;-46
2022/05/25 03:06:07;;;;;;;8.35;5.40;;;;;;;;;;2114182;28;20181;-46
2022/05/25 03:07:09;;;;;;;8.85;5.63;;;;;;;;;;2114221;28;20517;-47
2022/05/25 03:08:11;;;;;;;9.25;5.63;;;;;;;;;;2114085;28;20482;-46
2022/05/25 03:09:12;;;;;;;10.90;5.43;;;;;;;;;;2114017;28;20564;-46
2022/05/25 03:10:18;;;;;;;8.02;5.07;;;;;;;;;;2114039;28;20412;-46
2022/05/25 03:11:19;;;;;;;9.80;4.87;;;;;;;;;;2114090;28;20036;-46
2022/05/25 03:12:20;;;;;;;6.55;4.15;;;;;;;;;;2114170;28;20126;-48
2022/05/25 03:13:22;;;;;;;9.68;4.82;;;;;;;;;;2113982;28;20047;-46
2022/05/25 03:14:23;;;;;;;8.15;5.10;;;;;;;;;;2114161;28;20104;-46
2022/05/25 03:15:25;;;;;;;7.87;5.27;;;;;;;;;;2114123;28;20540;-46
2022/05/25 03:16:26;;;;;;;7.75;5.15;;;;;;;;;;2114183;28;20138;-46
2022/05/25 03:17:28;;;;;;;8.03;4.83;;;;;;;;;;2114119;28;20158;-46
2022/05/25 03:18:29;;;;;;;6.40;4.40;;;;;;;;;;2113112;28;20372;-46
2022/05/25 03:19:30;;;;;;;9.60;4.73;;;;;;;;;;2105656;28;20048;-46
2022/05/25 03:20:31;;;;;;;7.90;5.47;;;;;;;;;;2105501;28;20493;-46
2022/05/25 03:21:33;;;;;;;6.63;4.25;;;;;;;;;;2105567;28;20148;-46
2022/05/25 03:22:36;;;;;;;7.88;4.30;;;;;;;;;;2105598;28;20047;-46
2022/05/25 03:23:38;;;;;;;8.88;4.85;;;;;;;;;;2105382;28;20051;-46
2022/05/25 03:24:38;;;;;;;8.00;4.68;;;;;;;;;;2105499;28;20127;-47
2022/05/25 03:25:40;;;;;;;6.93;4.03;;;;;;;;;;2105594;28;20048;-48
2022/05/25 03:26:41;;;;;;;8.30;4.45;;;;;;;;;;2105605;28;20051;-46
2022/05/25 03:27:44;;;;;;;7.53;4.40;;;;;;;;;;2105681;28;20132;-47
2022/05/25 03:28:45;;;;;;;9.90;4.68;;;;;;;;;;2105561;28;20071;-47
2022/05/25 03:29:46;;;;;;;6.60;3.92;;;;;;;;;;2105589;28;20127;-47
2022/05/25 03:30:48;;;;;;;6.63;4.28;;;;;;;;;;2105686;28;20044;-47
2022/05/25 03:31:49;;;;;;;8.85;4.32;;;;;;;;;;2105600;28;20073;-46
2022/05/25 03:32:51;;;;;;;6.53;3.97;;;;;;;;;;2105700;28;20063;-46
2022/05/25 03:33:52;;;;;;;6.78;4.28;;;;;;;;;;2105497;28;20182;-46
2022/05/25 03:34:53;;;;;;;7.90;4.68;;;;;;;;;;2105793;28;20131;-46
2022/05/25 03:35:54;;;;;;;10.70;4.68;;;;;;;;;;2105633;28;20701;-47
2022/05/25 03:36:55;;;;;;;6.37;4.37;;;;;;;;;;2105842;28;20052;-46
2022/05/25 03:37:58;;;;;;;6.28;4.20;;;;;;;;;;2105697;28;20380;-47
2022/05/25 03:39:00;;;;;;;8.25;4.65;;;;;;;;;;2105577;28;20044;-46
2022/05/25 03:40:00;;;;;;;9.23;4.60;;;;;;;;;;2105600;28;20052;-46
2022/05/25 03:41:02;;;;;;;5.80;4.10;;;;;;;;;;2105566;28;20405;-47
2022/05/25 03:42:06;;;;;;;8.48;3.90;;;;;;;;;;2105626;28;20044;-46
2022/05/25 03:43:08;;;;;;;7.05;3.88;;;;;;;;;;2105580;28;20127;-46
2022/05/25 03:44:11;;;;;;;7.32;4.13;;;;;;;;;;2105563;28;20051;-46
2022/05/25 03:45:13;;;;;;;7.05;4.03;;;;;;;;;;2106889;28;20063;-47
2022/05/25 03:46:21;;;;;;;7.30;3.70;;;;;;;;;;2114061;28;20052;-46
2022/05/25 03:47:22;;;;;;;4.77;3.30;;;;;;;;;;2113959;28;20396;-46
2022/05/25 03:48:24;;;;;;;5.85;3.60;;;;;;;;;;2114058;28;20048;-46
2022/05/25 03:49:26;;;;;;;5.47;3.83;;;;;;;;;;2113970;28;20126;-46
2022/05/25 03:50:27;;;;;;;5.65;3.80;;;;;;;;;;2113961;28;20477;-46
2022/05/25 03:51:28;;;;;;;6.30;3.78;;;;;;;;;;2113948;28;20043;-46
2022/05/25 03:52:29;;;;;;;6.20;3.37;;;;;;;;;;2114099;28;20134;-46
2022/05/25 03:53:30;;;;;;;5.30;3.63;;;;;;;;;;2114015;28;20075;-46
2022/05/25 03:54:31;;;;;;;5.20;2.87;;;;;;;;;;2113988;28;20126;-46
2022/05/25 03:55:32;;;;;;;5.72;3.50;;;;;;;;;;2113911;28;20135;-47
2022/05/25 03:56:33;;;;;;;5.90;3.72;;;;;;;;;;2113881;28;20071;-47
2022/05/25 03:57:34;;;;;;;6.10;3.42;;;;;;;;;;2114001;28;20134;-46
2022/05/25 03:58:36;;;;;;;5.22;3.05;;;;;;;;;;2113851;28;20052;-46
2022/05/25 03:59:36;;;;;;;4.18;2.83;;;;;;;;;;2114059;28;20169;-47
2022/05/25 04:00:38;;;;;;;5.32;3.03;;;;;;;;;;2113831;28;20091;-46
2022/05/25 04:01:39;;;;;;;5.05;3.33;;;;;;;;;;2113963;28;20126;-47
2022/05/25 04:02:40;;;;;;;6.38;3.17;;;;;;;;;;2113821;28;20443;-46
2022/05/25 04:03:42;;;;;;;6.07;3.13;;;;;;;;;;2113813;28;20047;-46
2022/05/25 04:04:43;;;;;;;5.05;3.10;;;;;;;;;;2113878;28;20122;-46
2022/05/25 04:05:44;;;;;;;8.35;2.83;;;;;;;;;;2114126;28;20062;-59
2022/05/25 04:06:45;;;;;;;5.72;3.38;;;;;;;;;;2113809;28;20058;-59
2022/05/25 04:07:47;;;;;;;6.22;2.53;;;;;;;;;;2113801;28;20069;-59
2022/05/25 04:08:48;;;;;;;4.75;2.97;;;;;;;;;;2113913;28;20138;-46
2022/05/25 04:09:49;;;;;;;4.93;3.05;;;;;;;;;;2113703;28;20067;-46
2022/05/25 04:10:50;;;;;;;4.50;2.97;;;;;;;;;;2113807;28;20535;-46
2022/05/25 04:11:52;;;;;;;9.75;3.53;;;;;;;;;;2113752;28;20588;-46
2022/05/25 04:12:53;;;;;;;4.63;2.92;;;;;;;;;;2113907;28;20126;-47
2022/05/25 04:13:54;;;;;;;6.10;3.60;;;;;;;;;;2113720;28;20075;-46
2022/05/25 04:14:55;;;;;;;5.33;3.10;;;;;;;;;;2114126;28;20131;-46
2022/05/25 04:15:56;;;;;;;5.90;3.13;;;;;;;;;;2113681;28;20050;-46
2022/05/25 04:16:57;;;;;;;8.15;3.45;;;;;;;;;;2113955;28;20050;-46
2022/05/25 04:17:58;;;;;;;5.10;3.20;;;;;;;;;;2113859;28;20126;-46
2022/05/25 04:19:00;;;;;;;5.03;3.40;;;;;;;;;;2113434;28;20054;-46
2022/05/25 04:20:01;;;;;;;4.55;3.28;;;;;;;;;;2113778;28;20321;-46
2022/05/25 04:21:02;;;;;;;6.27;3.00;;;;;;;;;;2113944;28;20477;-58
2022/05/25 04:22:03;;;;;;;6.68;3.17;;;;;;;;;;2113862;28;20355;-59
2022/05/25 04:23:08;;;;;;;5.60;3.08;;;;;;;;;;2113788;28;20126;-59
2022/05/25 04:24:09;;;;;;;4.60;2.65;;;;;;;;;;2113768;28;20099;-59
2022/05/25 04:25:11;;;;;;;7.13;2.53;;;;;;;;;;2113720;28;20454;-59
2022/05/25 04:26:12;;;;;;;6.13;3.08;;;;;;;;;;2115283;28;20089;-59
2022/05/25 04:27:14;;;;;;;3.92;2.60;;;;;;;;;;2115299;28;20123;-59
2022/05/25 04:28:15;;;;;;;2.83;2.20;;;;;;;;;;2115132;28;20106;-59
2022/05/25 04:29:16;;;;;;;3.67;2.33;;;;;;;;;;2115164;28;20138;-58
2022/05/25 04:30:18;;;;;;;4.17;2.30;;;;;;;;;;2115011;28;20144;-59
2022/05/25 04:31:19;;;;;;;3.05;1.95;;;;;;;;;;2115106;28;20114;-59
2022/05/25 04:32:20;;;;;;;4.28;2.40;;;;;;;;;;2115207;28;20046;-59
2022/05/25 04:33:21;;;;;;;4.35;2.08;;;;;;;;;;2115074;28;20510;-59
2022/05/25 04:34:23;;;;;;;2.53;1.90;;;;;;;;;;2114991;28;20044;-59
2022/05/25 04:35:26;;;;;;;4.25;2.38;;;;;;;;;;2115249;28;20043;-59
2022/05/25 04:36:27;;;;;;;3.67;2.20;;;;;;;;;;2115107;28;20117;-59
2022/05/25 04:38:48;;;;;;;4.28;2.10;;;;;;;;;;2115032;28;20043;-59
2022/05/25 04:39:49;;;;;;;5.40;2.42;;;;;;;;;;2115093;28;20048;-59
2022/05/25 04:40:51;;;;;;;6.50;2.28;;;;;;;;;;2115452;28;20066;-59
2022/05/25 04:41:51;;;;;;;3.38;1.90;;;;;;;;;;2114894;28;20067;-59
2022/05/25 04:42:54;;;;;;;5.47;2.33;;;;;;;;;;2115335;28;20051;-59
2022/05/25 04:43:55;;;;;;;2.90;2.00;;;;;;;;;;2115155;28;20044;-57
2022/05/25 04:44:59;;;;;;;3.97;2.17;;;;;;;;;;2115263;28;20039;-59
2022/05/25 04:46:05;;;;;;;3.63;2.35;;;;;;;;;;2115292;28;20564;-59
2022/05/25 04:47:07;;;;;;;2.97;2.20;;;;;;;;;;2115197;28;20052;-59
2022/05/25 04:48:08;;;;;;;3.05;1.63;;;;;;;;;;2115058;28;20043;-59
2022/05/25 04:49:09;;;;;;;4.05;2.05;;;;;;;;;;2115088;28;20055;-59
2022/05/25 04:50:12;;;;;;;3.23;2.00;;;;;;;;;;2115064;28;20493;-46
2022/05/25 04:51:14;;;;;;;3.03;1.73;;;;;;;;;;2115198;28;20054;-46
2022/05/25 04:52:16;;;;;;;4.93;1.90;;;;;;;;;;2115044;28;20075;-46
2022/05/25 04:53:18;;;;;;;2.78;1.75;;;;;;;;;;2115132;28;20130;-47
2022/05/25 04:54:19;;;;;;;4.90;1.83;;;;;;;;;;2114931;28;20134;-46
2022/05/25 04:57:59;;;;;;;3.60;2.13;;;;;;;;;;2115117;28;20044;-46
2022/05/25 04:59:00;;;;;;;3.80;1.90;;;;;;;;;;2114925;28;20055;-46
2022/05/25 05:00:06;;;;;;;2.67;1.77;;;;;;;;;;2115067;28;20126;-46
2022/05/25 05:01:07;;;;;;;6.00;1.85;;;;;;;;;;2114985;28;20086;-46
2022/05/25 05:02:09;;;;;;;3.92;2.05;;;;;;;;;;2115038;28;20047;-46
2022/05/25 05:03:10;;;;;;;3.80;1.98;;;;;;;;;;2114944;28;20185;-46
2022/05/25 05:04:11;;;;;;;2.90;1.60;;;;;;;;;;2114945;28;20071;-47
2022/05/25 05:05:14;;;;;;;3.70;1.70;;;;;;;;;;2115238;28;20043;-59
2022/05/25 05:06:16;;;;;;;2.40;1.58;;;;;;;;;;2114813;28;20063;-59
2022/05/25 05:07:17;;;;;;;4.53;1.98;;;;;;;;;;2114915;28;20481;-59
2022/05/25 05:08:18;;;;;;;2.40;1.70;;;;;;;;;;2114933;28;20169;-60
2022/05/25 05:09:19;;;;;;;3.03;1.63;;;;;;;;;;2114799;28;20479;-59
2022/05/25 05:10:20;;;;;;;4.53;1.77;;;;;;;;;;2114793;28;20043;-59
2022/05/25 05:11:21;;;;;;;4.95;1.80;;;;;;;;;;2114867;28;20076;-60
2022/05/25 05:12:23;;;;;;;7.05;1.90;;;;;;;;;;2114869;28;20141;-59
2022/05/25 05:13:23;;;;;;;3.15;1.73;;;;;;;;;;2114810;28;20374;-59
2022/05/25 05:14:25;;;;;;;2.45;1.55;;;;;;;;;;2114876;28;20054;-59
2022/05/25 05:15:26;;;;;;;5.88;1.77;;;;;;;;;;2114840;28;20044;-60
2022/05/25 05:16:27;;;;;;;2.47;1.70;;;;;;;;;;2114970;28;20047;-60
2022/05/25 05:17:28;;;;;;;2.22;1.48;;;;;;;;;;2114771;28;20056;-59
2022/05/25 05:18:29;;;;;;;4.20;1.80;;;;;;;;;;2113734;28;20079;-60
2022/05/25 05:19:30;;;;;;;2.60;1.60;;;;;;;;;;2106409;28;20477;-59
2022/05/25 05:20:32;;;;;;;3.75;1.67;;;;;;;;;;2106343;28;20056;-59
2022/05/25 05:21:33;;;;;;;;;;;;;;;;;;2106840;28;20097;-60
2022/05/25 05:22:34;;;;;;;4.93;1.67;;;;;;;;;;2106328;28;19920;-59
2022/05/25 05:23:37;;;;;;;3.40;1.67;;;;;;;;;;2106359;28;20519;-60
2022/05/25 05:24:39;;;;;;;3.60;1.55;;;;;;;;;;2106286;28;20084;-59
2022/05/25 05:25:40;;;;;;;3.25;1.73;;;;;;;;;;2106342;28;20058;-60
2022/05/25 05:26:41;;;;;;;2.50;1.60;;;;;;;;;;2106443;28;20047;-59
2022/05/25 05:27:42;;;;;;;4.82;1.88;;;;;;;;;;2106283;28;20412;-59
2022/05/25 05:28:44;;;;;;;2.03;1.48;;;;;;;;;;2106186;28;20047;-60
2022/05/25 05:29:45;;;;;;;4.47;1.85;;;;;;;;;;2106368;28;20390;-60
2022/05/25 05:30:48;;;;;;;3.47;1.63;;;;;;;;;;2106529;28;20040;-60
2022/05/25 05:31:54;;;;;;;4.15;1.73;;;;;;;;;;2106540;28;20507;-59
2022/05/25 05:32:55;;;;;;;2.85;1.15;;;;;;;;;;2106316;28;20052;-60
2022/05/25 05:33:56;;;;;;;3.42;1.95;;;;;;;;;;2106485;28;20132;-59
2022/05/25 05:34:57;;;;;;;2.27;1.57;;;;;;;;;;2106467;28;20370;-59
2022/05/25 05:36:01;;;;;;;2.25;1.27;;;;;;;;;;2106578;28;20289;-47
2022/05/25 05:37:05;;;;;;;4.20;1.73;;;;;;;;;;2105048;28;20099;-47
2022/05/25 05:38:06;;;;;;;3.90;1.38;;;;;;;;;;2110947;28;20051;-47
2022/05/25 05:39:08;;;;;;;2.83;1.50;;;;;;;;;;2114748;28;20130;-47
2022/05/25 05:40:10;;;;;;;3.97;1.55;;;;;;;;;;2114614;28;20154;-47
2022/05/25 05:41:12;;;;;;;3.13;1.33;;;;;;;;;;2114837;28;20082;-46
2022/05/25 05:42:13;;;;;;;;;;;;;;;;;;2115072;28;20069;-46
2022/05/25 05:43:14;;;;;;;4.13;1.40;;;;;;;;;;2114682;28;19980;-46
2022/05/25 05:44:17;;;;;;;2.97;1.63;;;;;;;;;;2114767;28;20035;-47
2022/05/25 05:45:20;;;;;;;3.60;1.50;;;;;;;;;;2114649;28;20130;-47
2022/05/25 05:46:22;;;;;;;2.55;1.50;;;;;;;;;;2114589;28;20094;-47
2022/05/25 05:47:25;;;;;;;2.65;1.55;;;;;;;;;;2114654;28;20048;-46
2022/05/25 05:48:27;;;;;;;3.80;1.48;;;;;;;;;;2114686;28;20075;-47
2022/05/25 05:49:29;;;;;;;3.17;1.23;;;;;;;;;;2114657;28;20123;-48
2022/05/25 05:50:30;;;;;;;2.85;1.63;;;;;;;;;;2114607;28;20139;-49
2022/05/25 05:51:32;;;;;;;2.92;1.45;;;;;;;;;;2114669;28;20562;-46
2022/05/25 05:52:33;;;;;;;3.67;1.52;;;;;;;;;;2114564;28;20052;-46
2022/05/25 05:53:35;;;;;;;2.97;1.52;;;;;;;;;;2114496;28;20122;-48
2022/05/25 05:54:37;;;;;;;3.63;1.52;;;;;;;;;;2114911;28;20130;-47
2022/05/25 05:55:40;;;;;;;3.05;1.83;;;;;;;;;;2114554;28;20056;-46
2022/05/25 05:56:41;;;;;;;3.00;1.65;;;;;;;;;;2114671;28;20449;-46
2022/05/25 05:57:42;;;;;;;3.83;1.70;;;;;;;;;;2114819;28;20050;-46
2022/05/25 05:58:43;;;;;;;2.05;1.35;;;;;;;;;;2114498;28;20044;-48
2022/05/25 05:59:44;;;;;;;3.10;1.93;;;;;;;;;;2114607;28;20066;-47
2022/05/25 06:00:45;;;;;;;;;;;;;;;;;;2115134;28;20047;-46
2022/05/25 06:01:47;;;;;;;3.28;1.63;;;;;;;;;;2114550;28;20011;-46
2022/05/25 06:02:50;;;;;;;3.35;1.30;;;;;;;;;;2114715;28;20073;-46
2022/05/25 06:03:51;;;;;;;2.88;1.88;;;;;;;;;;2114552;28;20092;-46
2022/05/25 06:04:52;;;;;;;3.33;1.70;;;;;;;;;;2114447;28;20489;-47
2022/05/25 06:05:53;;;;;;;4.05;1.77;;;;;;;;;;2114568;28;20506;-46
2022/05/25 06:06:55;;;;;;;2.55;1.70;;;;;;;;;;2114499;28;20127;-46
2022/05/25 06:07:56;;;;;;;2.47;1.40;;;;;;;;;;2114471;28;20136;-46
2022/05/25 06:08:57;;;;;;;2.13;1.35;;;;;;;;;;2114469;28;20135;-47
2022/05/25 06:09:58;;;;;;;3.33;1.85;;;;;;;;;;2114581;28;20054;-47
2022/05/25 06:10:59;;;;;;;2.58;1.65;;;;;;;;;;2114149;28;20066;-46
2022/05/25 06:12:01;;;;;;;3.88;1.27;;;;;;;;;;2114054;28;20086;-48
2022/05/25 06:13:02;;;;;;;3.85;1.95;;;;;;;;;;2114357;28;20126;-47
2022/05/25 06:14:03;;;;;;;3.00;1.52;;;;;;;;;;2114466;28;20052;-46
2022/05/25 06:20:19;;;;;;;2.15;1.40;;;;;;;;;;2105979;28;20063;-46
2022/05/25 06:21:20;;;;;;;3.15;1.58;;;;;;;;;;2105924;28;20087;-47
2022/05/25 06:22:22;;;;;;;2.42;1.23;;;;;;;;;;2106026;28;20051;-46
2022/05/25 06:23:23;;;;;;;3.80;1.35;;;;;;;;;;2106161;28;20068;-46
2022/05/25 06:24:25;;;;;;;4.10;1.52;;;;;;;;;;2105868;28;20124;-46
2022/05/25 06:25:26;;;;;;;4.88;1.60;;;;;;;;;;2105901;28;20497;-46
2022/05/25 06:26:30;;;;;;;4.30;1.77;;;;;;;;;;2105977;28;20122;-48